createdAt,value
2018-04-23T00:01:15.392Z,19.37
2018-04-23T00:04:17.886Z,27.73
2018-04-23T00:07:20.461Z,22.40
2018-04-23T00:10:22.924Z,18.67
2018-04-23T00:13:25.436Z,16.60
2018-04-23T00:16:27.900Z,15.83
2018-04-23T00:19:30.457Z,22.50
2018-04-23T00:22:32.953Z,21.57
2018-04-23T00:25:35.442Z,19.93
2018-04-23T00:28:37.948Z,25.03
2018-04-23T00:31:40.617Z,25.43
2018-04-23T00:34:43.110Z,20.23
2018-04-23T00:37:45.604Z,22.40
2018-04-23T00:40:48.080Z,17.10
2018-04-23T00:43:50.593Z,19.00
2018-04-23T00:46:53.078Z,21.73
2018-04-23T00:49:55.565Z,24.83
2018-04-23T00:53:09.975Z,19.37
2018-04-23T00:56:12.477Z,21.87
2018-04-23T00:59:14.927Z,20.47
2018-04-23T01:02:17.429Z,21.17
2018-04-23T01:05:19.940Z,20.27
2018-04-23T01:08:22.416Z,22.53
2018-04-23T01:11:24.950Z,21.57
2018-04-23T01:14:27.536Z,23.73
2018-04-23T01:17:30.022Z,19.43
2018-04-23T01:20:32.520Z,22.13
2018-04-23T01:23:35.075Z,24.03
2018-04-23T01:26:37.596Z,21.33
2018-04-23T01:29:40.126Z,21.97
2018-04-23T01:32:42.618Z,20.43
2018-04-23T01:35:45.127Z,28.23
2018-04-23T01:38:47.586Z,23.73
2018-04-23T01:41:50.088Z,20.17
2018-04-23T01:44:52.596Z,24.57
2018-04-23T01:47:55.081Z,25.47
2018-04-23T01:50:57.566Z,24.97
2018-04-23T01:54:00.011Z,22.13
2018-04-23T01:57:02.592Z,25.03
2018-04-23T02:00:05.161Z,24.10
2018-04-23T02:03:07.637Z,22.43
2018-04-23T02:06:10.192Z,25.77
2018-04-23T02:09:12.711Z,26.87
2018-04-23T02:12:15.207Z,26.13
2018-04-23T02:15:17.660Z,30.03
2018-04-23T02:18:20.174Z,27.37
2018-04-23T02:21:22.699Z,26.17
2018-04-23T02:24:25.178Z,28.40
2018-04-23T02:27:27.643Z,32.80
2018-04-23T02:30:30.173Z,28.97
2018-04-23T02:33:32.643Z,28.83
2018-04-23T02:36:35.133Z,28.60
2018-04-23T02:39:37.645Z,30.37
2018-04-23T02:42:40.152Z,28.33
2018-04-23T02:45:42.677Z,29.53
2018-04-23T02:48:45.254Z,28.40
2018-04-23T02:51:47.775Z,27.00
2018-04-23T02:54:50.228Z,28.47
2018-04-23T02:57:52.717Z,34.43
2018-04-23T03:00:55.231Z,27.43
2018-04-23T03:03:57.719Z,28.60
2018-04-23T03:07:00.237Z,24.70
2018-04-23T03:10:02.718Z,25.67
2018-04-23T03:13:05.216Z,26.77
2018-04-23T03:16:07.711Z,29.90
2018-04-23T03:19:10.212Z,30.50
2018-04-23T03:22:12.722Z,33.40
2018-04-23T03:25:15.208Z,32.00
2018-04-23T03:28:17.672Z,33.63
2018-04-23T03:31:20.412Z,37.50
2018-04-23T03:34:22.925Z,26.80
2018-04-23T03:37:25.440Z,29.90
2018-04-23T03:40:27.894Z,31.53
2018-04-23T03:43:30.390Z,26.70
2018-04-23T03:46:32.868Z,28.30
2018-04-23T03:49:35.372Z,28.73
2018-04-23T03:52:37.940Z,34.83
2018-04-23T03:55:40.499Z,32.50
2018-04-23T03:58:43.064Z,32.53
2018-04-23T04:01:45.533Z,33.93
2018-04-23T04:04:48.023Z,34.80
2018-04-23T04:07:50.649Z,36.90
2018-04-23T04:10:53.129Z,41.23
2018-04-23T04:14:07.304Z,48.23
2018-04-23T04:17:09.848Z,44.50
2018-04-23T04:20:12.368Z,43.33
2018-04-23T04:26:24.653Z,43.00
2018-04-23T04:29:27.159Z,47.63
2018-04-23T04:32:29.677Z,58.43
2018-04-23T04:35:32.213Z,48.90
2018-04-23T04:38:34.690Z,53.40
2018-04-23T04:41:37.235Z,53.70
2018-04-23T04:44:40.019Z,48.67
2018-04-23T04:47:42.593Z,45.20
2018-04-23T04:50:45.155Z,53.00
2018-04-23T04:53:47.664Z,59.53
2018-04-23T04:56:50.169Z,61.13
2018-04-23T04:59:52.688Z,57.50
2018-04-23T05:02:55.208Z,53.80
2018-04-23T05:05:57.729Z,58.73
2018-04-23T05:09:00.212Z,54.67
2018-04-23T05:12:02.655Z,55.27
2018-04-23T05:15:05.161Z,47.17
2018-04-23T05:18:07.685Z,52.03
2018-04-23T05:21:10.159Z,49.90
2018-04-23T05:24:12.687Z,56.07
2018-04-23T05:27:15.150Z,54.40
2018-04-23T05:30:17.751Z,53.57
2018-04-23T05:33:20.254Z,58.13
2018-04-23T05:36:22.720Z,54.40
2018-04-23T05:39:25.180Z,53.93
2018-04-23T05:42:27.700Z,60.27
2018-04-23T05:45:30.178Z,56.83
2018-04-23T05:48:32.616Z,55.30
2018-04-23T05:51:35.073Z,54.07
2018-04-23T05:54:37.604Z,56.90
2018-04-23T05:57:40.073Z,55.77
2018-04-23T06:00:42.610Z,58.50
2018-04-23T06:03:45.108Z,55.03
2018-04-23T06:06:47.543Z,56.60
2018-04-23T06:09:50.042Z,55.33
2018-04-23T06:12:52.543Z,58.20
2018-04-23T06:15:55.172Z,58.33
2018-04-23T06:18:57.668Z,51.63
2018-04-23T06:22:00.178Z,56.70
2018-04-23T06:25:02.704Z,54.47
2018-04-23T06:28:05.258Z,45.10
2018-04-23T06:31:07.708Z,44.37
2018-04-23T06:34:10.165Z,42.43
2018-04-23T06:37:12.669Z,40.90
2018-04-23T06:40:15.165Z,37.60
2018-04-23T06:43:17.655Z,29.57
2018-04-23T06:46:20.193Z,33.57
2018-04-23T06:49:22.694Z,36.50
2018-04-23T06:52:25.219Z,42.20
2018-04-23T06:55:27.663Z,30.70
2018-04-23T06:58:30.167Z,30.40
2018-04-23T07:01:32.657Z,37.53
2018-04-23T07:04:35.260Z,35.80
2018-04-23T07:07:37.772Z,31.40
2018-04-23T07:10:40.299Z,29.10
2018-04-23T07:13:42.792Z,32.60
2018-04-23T07:16:45.241Z,34.90
2018-04-23T07:19:47.740Z,28.30
2018-04-23T07:22:50.244Z,26.90
2018-04-23T07:25:52.756Z,35.63
2018-04-23T07:32:04.057Z,27.33
2018-04-23T07:35:06.524Z,28.47
2018-04-23T07:38:09.000Z,21.70
2018-04-23T07:41:11.459Z,22.43
2018-04-23T07:44:13.948Z,26.80
2018-04-23T07:47:16.562Z,22.67
2018-04-23T07:50:19.066Z,20.33
2018-04-23T07:53:21.517Z,24.70
2018-04-23T07:56:24.017Z,21.03
2018-04-23T07:59:26.559Z,21.20
2018-04-23T08:02:29.016Z,24.80
2018-04-23T08:05:31.534Z,21.67
2018-04-23T08:08:34.009Z,20.63
2018-04-23T08:11:36.656Z,20.07
2018-04-23T08:14:39.142Z,21.90
2018-04-23T08:17:41.650Z,17.57
2018-04-23T08:20:44.244Z,20.33
2018-04-23T08:23:46.714Z,20.33
2018-04-23T08:26:49.216Z,15.77
2018-04-23T08:29:51.781Z,18.43
2018-04-23T08:32:54.285Z,16.70
2018-04-23T08:35:56.845Z,12.03
2018-04-23T08:38:59.278Z,13.47
2018-04-23T08:42:01.810Z,12.47
2018-04-23T08:45:04.326Z,14.70
2018-04-23T08:48:06.815Z,12.23
2018-04-23T08:51:09.337Z,11.10
2018-04-23T08:54:11.830Z,15.90
2018-04-23T08:57:14.381Z,13.90
2018-04-23T09:00:16.944Z,15.93
2018-04-23T09:03:19.412Z,11.40
2018-04-23T09:06:21.903Z,10.40
2018-04-23T09:09:24.386Z,11.00
2018-04-23T09:12:26.903Z,15.97
2018-04-23T09:15:29.392Z,16.13
2018-04-23T09:18:31.915Z,14.83
2018-04-23T09:21:34.393Z,14.80
2018-04-23T09:24:36.846Z,11.30
2018-04-23T09:27:39.324Z,15.70
2018-04-23T09:30:41.776Z,17.67
2018-04-23T09:33:44.282Z,14.20
2018-04-23T09:36:46.766Z,23.43
2018-04-23T09:39:49.235Z,15.33
2018-04-23T09:42:51.735Z,12.93
2018-04-23T09:45:54.271Z,11.17
2018-04-23T09:48:56.817Z,16.30
2018-04-23T09:51:59.316Z,12.33
2018-04-23T09:55:01.799Z,11.90
2018-04-23T09:58:04.277Z,10.30
2018-04-23T10:01:12.498Z,10.80
2018-04-23T10:04:20.874Z,11.37
2018-04-23T10:07:23.386Z,11.43
2018-04-23T10:10:25.842Z,13.60
2018-04-23T10:13:28.347Z,12.13
2018-04-23T10:16:30.811Z,10.30
2018-04-23T10:19:33.430Z,9.97
2018-04-23T10:22:35.871Z,9.93
2018-04-23T10:25:38.420Z,9.20
2018-04-23T10:28:40.947Z,8.97
2018-04-23T10:31:43.543Z,12.20
2018-04-23T10:34:46.033Z,9.50
2018-04-23T10:37:48.533Z,9.93
2018-04-23T10:40:51.069Z,9.30
2018-04-23T10:43:53.534Z,9.80
2018-04-23T10:46:56.019Z,9.33
2018-04-23T10:49:58.490Z,11.20
2018-04-23T10:53:00.963Z,8.27
2018-04-23T10:56:03.456Z,10.10
2018-04-23T10:59:06.652Z,11.43
2018-04-23T11:02:09.154Z,8.90
2018-04-23T11:05:11.589Z,12.00
2018-04-23T11:08:14.060Z,10.30
2018-04-23T11:11:16.555Z,12.60
2018-04-23T11:14:19.133Z,9.50
2018-04-23T11:17:21.608Z,11.20
2018-04-23T11:20:24.118Z,11.40
2018-04-23T11:23:27.352Z,8.30
2018-04-23T11:26:29.893Z,9.60
2018-04-23T11:29:32.358Z,11.80
2018-04-23T11:32:34.969Z,8.80
2018-04-23T11:35:37.459Z,9.50
2018-04-23T11:38:39.944Z,11.70
2018-04-23T11:41:42.585Z,10.40
2018-04-23T11:44:45.093Z,9.57
2018-04-23T11:47:47.580Z,12.40
2018-04-23T11:50:50.063Z,10.10
2018-04-23T11:53:52.565Z,9.10
2018-04-23T11:56:55.103Z,10.77
2018-04-23T11:59:57.616Z,8.20
2018-04-23T12:03:00.140Z,10.60
2018-04-23T12:06:02.696Z,10.90
2018-04-23T12:09:06.068Z,9.50
2018-04-23T12:12:08.597Z,9.07
2018-04-23T12:15:11.215Z,11.00
2018-04-23T12:18:13.684Z,8.47
2018-04-23T12:21:16.213Z,7.63
2018-04-23T12:24:18.746Z,6.90
2018-04-23T12:27:21.247Z,9.67
2018-04-23T12:30:23.789Z,10.50
2018-04-23T12:33:26.242Z,7.73
2018-04-23T12:36:28.743Z,9.00
2018-04-23T12:39:31.289Z,9.70
2018-04-23T12:42:33.808Z,8.70
2018-04-23T12:45:36.345Z,10.13
2018-04-23T12:48:38.875Z,9.57
2018-04-23T12:51:41.435Z,8.73
2018-04-23T12:54:43.906Z,9.17
2018-04-23T12:57:46.401Z,9.10
2018-04-23T13:00:48.970Z,10.23
2018-04-23T13:03:51.484Z,11.00
2018-04-23T13:06:54.029Z,9.47
2018-04-23T13:09:56.478Z,14.80
2018-04-23T13:12:58.980Z,12.23
2018-04-23T13:16:01.476Z,10.00
2018-04-23T13:19:03.981Z,11.63
2018-04-23T13:22:06.491Z,11.60
2018-04-23T13:25:08.941Z,10.03
2018-04-23T13:28:11.420Z,9.27
2018-04-23T13:31:13.925Z,9.43
2018-04-23T13:34:16.380Z,11.60
2018-04-23T13:37:19.006Z,11.53
2018-04-23T13:40:21.460Z,11.00
2018-04-23T13:43:23.961Z,11.83
2018-04-23T13:46:26.421Z,11.67
2018-04-23T13:49:28.945Z,13.30
2018-04-23T13:52:31.405Z,10.47
2018-04-23T13:55:33.979Z,15.13
2018-04-23T13:58:36.426Z,10.87
2018-04-23T14:01:38.965Z,12.40
2018-04-23T14:04:41.511Z,11.70
2018-04-23T14:07:44.134Z,12.90
2018-04-23T14:10:46.605Z,10.90
2018-04-23T14:13:49.070Z,9.77
2018-04-23T14:16:51.552Z,11.10
2018-04-23T14:19:54.055Z,10.23
2018-04-23T14:22:56.606Z,9.83
2018-04-23T14:25:59.141Z,8.83
2018-04-23T14:29:01.600Z,9.03
2018-04-23T14:32:04.105Z,8.83
2018-04-23T14:35:06.587Z,7.83
2018-04-23T14:38:09.122Z,8.57
2018-04-23T14:41:11.700Z,9.20
2018-04-23T14:44:14.316Z,9.50
2018-04-23T14:47:16.882Z,9.83
2018-04-23T14:50:19.358Z,10.23
2018-04-23T14:53:21.867Z,10.27
2018-04-23T14:56:24.423Z,12.07
2018-04-23T14:59:26.907Z,9.90
2018-04-23T15:02:29.492Z,11.47
2018-04-23T15:05:32.001Z,10.83
2018-04-23T15:08:34.487Z,10.60
2018-04-23T15:11:36.999Z,11.20
2018-04-23T15:14:39.466Z,12.13
2018-04-23T15:17:41.991Z,11.83
2018-04-23T15:20:44.504Z,10.03
2018-04-23T15:23:46.987Z,11.90
2018-04-23T15:26:49.509Z,11.33
2018-04-23T15:29:52.000Z,12.60
2018-04-23T15:32:54.504Z,13.17
2018-04-23T15:35:56.980Z,12.03
2018-04-23T15:38:59.488Z,12.33
2018-04-23T15:42:02.061Z,12.57
2018-04-23T15:45:04.530Z,12.47
2018-04-23T15:48:07.012Z,13.80
2018-04-23T15:51:09.592Z,13.63
2018-04-23T15:54:12.114Z,11.87
2018-04-23T15:57:14.620Z,15.10
2018-04-23T16:00:17.146Z,14.00
2018-04-23T16:03:19.639Z,15.10
2018-04-23T16:06:22.179Z,14.20
2018-04-23T16:09:24.677Z,18.37
2018-04-23T16:12:27.200Z,13.50
2018-04-23T16:15:29.716Z,15.00
2018-04-23T16:18:32.216Z,13.50
2018-04-23T16:21:34.788Z,14.23
2018-04-23T16:24:37.324Z,14.73
2018-04-23T16:27:39.926Z,14.10
2018-04-23T16:30:42.424Z,14.07
2018-04-23T16:33:44.976Z,12.37
2018-04-23T16:36:47.480Z,14.30
2018-04-23T16:39:49.998Z,11.43
2018-04-23T16:42:52.531Z,11.27
2018-04-23T16:45:55.046Z,13.17
2018-04-23T16:48:57.520Z,12.63
2018-04-23T16:52:00.092Z,12.80
2018-04-23T16:55:02.651Z,13.50
2018-04-23T16:58:05.160Z,10.60
2018-04-23T17:01:07.617Z,16.60
2018-04-23T17:04:10.142Z,13.53
2018-04-23T17:07:12.613Z,11.37
2018-04-23T17:10:15.146Z,10.90
2018-04-23T17:13:17.716Z,16.93
2018-04-23T17:16:20.253Z,11.43
2018-04-23T17:19:22.811Z,12.53
2018-04-23T17:22:25.308Z,14.53
2018-04-23T17:25:27.826Z,10.90
2018-04-23T17:28:30.284Z,11.93
2018-04-23T17:31:32.821Z,11.83
2018-04-23T17:34:35.326Z,10.30
2018-04-23T17:37:37.969Z,10.90
2018-04-23T17:40:40.476Z,11.80
2018-04-23T17:43:42.961Z,14.80
2018-04-23T17:46:45.477Z,12.73
2018-04-23T17:49:48.017Z,12.00
2018-04-23T17:52:50.600Z,10.17
2018-04-23T17:55:53.161Z,11.50
2018-04-23T17:58:55.679Z,11.97
2018-04-23T18:01:58.204Z,12.27
2018-04-23T18:05:00.762Z,14.97
2018-04-23T18:08:03.298Z,14.63
2018-04-23T18:11:05.831Z,11.73
2018-04-23T18:14:08.414Z,14.60
2018-04-23T18:17:10.952Z,13.70
2018-04-23T18:20:13.459Z,15.60
2018-04-23T18:23:15.974Z,11.73
2018-04-23T18:26:18.534Z,12.80
2018-04-23T18:29:21.090Z,13.30
2018-04-23T18:32:23.614Z,14.10
2018-04-23T18:35:26.122Z,10.97
2018-04-23T18:38:28.620Z,11.97
2018-04-23T18:41:31.135Z,12.43
2018-04-23T18:44:33.666Z,12.70
2018-04-23T18:47:36.195Z,12.90
2018-04-23T18:50:38.767Z,12.53
2018-04-23T18:53:41.195Z,10.50
2018-04-23T18:56:43.754Z,13.23
2018-04-23T18:59:46.282Z,12.07
2018-04-23T19:02:48.753Z,12.50
2018-04-23T19:05:51.248Z,14.67
2018-04-23T19:08:53.763Z,10.83
2018-04-23T19:11:56.280Z,8.80
2018-04-23T19:14:58.803Z,10.40
2018-04-23T19:18:01.381Z,13.47
2018-04-23T19:21:03.950Z,11.37
2018-04-23T19:24:06.474Z,8.77
2018-04-23T19:27:08.975Z,14.80
2018-04-23T19:30:11.490Z,7.47
2018-04-23T19:33:14.047Z,10.17
2018-04-23T19:36:16.613Z,8.40
2018-04-23T19:39:19.219Z,8.60
2018-04-23T19:42:21.670Z,7.50
2018-04-23T19:45:24.163Z,7.90
2018-04-23T19:48:26.805Z,6.30
2018-04-23T19:51:29.377Z,10.20
2018-04-23T19:54:31.902Z,8.90
2018-04-23T19:57:34.468Z,8.07
2018-04-23T20:00:36.988Z,12.80
2018-04-23T20:03:39.497Z,8.30
2018-04-23T20:06:42.049Z,7.77
2018-04-23T20:09:44.647Z,8.10
2018-04-23T20:12:47.104Z,11.57
2018-04-23T20:15:49.626Z,9.13
2018-04-23T20:18:52.113Z,6.57
2018-04-23T20:21:54.650Z,6.47
2018-04-23T20:24:57.154Z,11.00
2018-04-23T20:27:59.688Z,7.43
2018-04-23T20:31:02.179Z,10.57
2018-04-23T20:34:04.708Z,6.67
2018-04-23T20:37:07.181Z,9.13
2018-04-23T20:40:09.758Z,5.37
2018-04-23T20:43:12.242Z,7.87
2018-04-23T20:46:14.766Z,7.40
2018-04-23T20:49:17.271Z,9.87
2018-04-23T20:52:19.740Z,5.20
2018-04-23T20:55:22.284Z,7.67
2018-04-23T20:58:24.890Z,6.67
2018-04-23T21:01:27.379Z,8.17
2018-04-23T21:04:29.893Z,5.83
2018-04-23T21:07:32.340Z,5.07
2018-04-23T21:10:34.830Z,5.30
2018-04-23T21:13:37.339Z,4.33
2018-04-23T21:16:39.839Z,4.07
2018-04-23T21:19:42.351Z,4.83
2018-04-23T21:22:44.820Z,4.50
2018-04-23T21:25:47.381Z,3.30
2018-04-23T21:28:49.850Z,9.33
2018-04-23T21:31:52.404Z,7.30
2018-04-23T21:34:54.890Z,5.70
2018-04-23T21:37:57.421Z,4.90
2018-04-23T21:40:59.981Z,4.30
2018-04-23T21:44:02.559Z,4.83
2018-04-23T21:47:05.235Z,5.60
2018-04-23T21:50:07.681Z,3.60
2018-04-23T21:53:10.162Z,6.30
2018-04-23T21:56:12.607Z,6.90
2018-04-23T21:59:15.081Z,4.00
2018-04-23T22:02:17.532Z,3.93
2018-04-23T22:05:19.962Z,5.70
2018-04-23T22:08:22.450Z,8.00
2018-04-23T22:11:24.952Z,5.17
2018-04-23T22:14:27.452Z,3.80
2018-04-23T22:17:29.941Z,3.40
2018-04-23T22:20:32.387Z,3.30
2018-04-23T22:23:34.902Z,7.00
2018-04-23T22:26:37.341Z,5.63
2018-04-23T22:29:39.830Z,6.13
2018-04-23T22:32:42.395Z,4.63
2018-04-23T22:35:44.866Z,5.73
2018-04-23T22:38:47.415Z,3.73
2018-04-23T22:41:49.878Z,5.17
2018-04-23T22:44:52.297Z,6.17
2018-04-23T22:47:54.782Z,4.03
2018-04-23T22:50:57.262Z,5.07
2018-04-23T22:53:59.740Z,5.00
2018-04-23T22:57:02.208Z,5.43
2018-04-23T23:00:04.695Z,4.63
2018-04-23T23:03:07.180Z,4.67
2018-04-23T23:06:09.620Z,8.00
2018-04-23T23:09:12.189Z,7.90
2018-04-23T23:12:14.660Z,7.43
2018-04-23T23:15:17.175Z,5.70
2018-04-23T23:18:19.614Z,7.80
2018-04-23T23:21:22.083Z,8.10
2018-04-23T23:24:24.560Z,9.70
2018-04-23T23:27:27.071Z,8.33
2018-04-23T23:30:29.597Z,7.67
2018-04-23T23:33:32.053Z,8.87
2018-04-23T23:36:34.586Z,10.53
2018-04-23T23:39:37.067Z,14.53
2018-04-23T23:42:39.531Z,9.50
2018-04-23T23:45:42.016Z,12.50
2018-04-23T23:48:44.565Z,9.10
2018-04-23T23:51:47.015Z,9.87
2018-04-23T23:54:49.480Z,9.23
2018-04-23T23:57:51.980Z,11.63
